Time;durP1;ratioP1;P1;durP2;ratioP2;P2;SDS_P1;SDS_P2;PMS_P1;PMS_P2;Temp;Humidity;BMP_temperature;BMP_pressure;BME280_temperature;BME280_humidity;BME280_pressure;Samples;Min_cycle;Max_cycle;Signal;HPM_P1;HPM_P2
2022/07/04 00:00:36;;;;;;;3.65;0.93;;;20.70;99.90;;;;;;5076979;28;20390;-55
2022/07/04 00:03:01;;;;;;;3.25;1.20;;;20.50;99.90;;;;;;5075477;28;20025;-53
2022/07/04 00:05:27;;;;;;;1.27;0.93;;;20.50;99.90;;;;;;5074860;28;20020;-49
2022/07/04 00:07:53;;;;;;;0.98;0.88;;;20.40;99.90;;;;;;5076106;28;20497;-50
2022/07/04 00:10:22;;;;;;;2.30;1.20;;;20.30;99.90;;;;;;5076018;28;20115;-49
2022/07/04 00:12:48;;;;;;;1.95;0.90;;;20.30;99.90;;;;;;5074794;28;20030;-52
2022/07/04 00:15:13;;;;;;;5.88;1.30;;;20.20;99.90;;;;;;5074686;28;20107;-52
2022/07/04 00:17:40;;;;;;;1.13;1.00;;;20.10;99.90;;;;;;5075779;28;20035;-53
2022/07/04 00:20:07;;;;;;;2.17;1.15;;;20.10;99.90;;;;;;5075952;28;20013;-54
2022/07/04 00:22:33;;;;;;;2.22;1.00;;;20.00;99.90;;;;;;5075746;28;20116;-50
2022/07/04 00:24:59;;;;;;;1.60;0.90;;;19.90;99.90;;;;;;5075796;28;20025;-52
2022/07/04 00:27:25;;;;;;;1.42;1.10;;;19.90;99.90;;;;;;5074726;28;20029;-51
2022/07/04 00:29:50;;;;;;;2.83;0.95;;;19.80;99.90;;;;;;5074439;28;20483;-50
2022/07/04 00:32:16;;;;;;;1.65;1.00;;;19.70;99.90;;;;;;5075599;28;20049;-50
2022/07/04 00:34:42;;;;;;;2.00;1.10;;;19.50;99.90;;;;;;5074675;28;20082;-52
2022/07/04 00:37:08;;;;;;;2.55;1.20;;;19.40;99.90;;;;;;5075268;28;20028;-51
2022/07/04 00:39:33;;;;;;;2.35;1.08;;;19.30;99.90;;;;;;5074271;28;20024;-52
2022/07/04 00:41:59;;;;;;;2.17;1.30;;;19.30;99.90;;;;;;5074155;28;20025;-50
2022/07/04 00:44:24;;;;;;;1.13;1.05;;;19.10;99.90;;;;;;5075731;28;20029;-50
2022/07/04 00:46:50;;;;;;;1.10;0.90;;;19.10;99.90;;;;;;5074470;28;20469;-53
2022/07/04 00:49:17;;;;;;;1.00;0.93;;;19.00;99.90;;;;;;5073954;28;20024;-49
2022/07/04 00:51:44;;;;;;;0.80;0.80;;;19.00;99.90;;;;;;5075265;28;20098;-50
2022/07/04 00:54:12;;;;;;;2.33;1.20;;;19.00;99.90;;;;;;5075909;28;20028;-49
2022/07/04 00:56:40;;;;;;;1.83;0.82;;;19.00;99.90;;;;;;5074624;28;20024;-53
2022/07/04 00:59:06;;;;;;;3.35;1.30;;;19.00;99.90;;;;;;5075222;28;20082;-49
2022/07/04 01:01:32;;;;;;;0.75;0.75;;;19.00;99.90;;;;;;5075080;28;20103;-54
2022/07/04 01:03:58;;;;;;;1.30;1.00;;;18.90;99.90;;;;;;5073875;28;20025;-54
2022/07/04 01:06:24;;;;;;;1.58;1.00;;;18.90;99.90;;;;;;5073406;28;20024;-50
2022/07/04 01:08:50;;;;;;;3.97;1.02;;;18.80;99.90;;;;;;5074057;28;20048;-50
2022/07/04 01:11:16;;;;;;;1.95;1.30;;;18.70;99.90;;;;;;5075195;28;20036;-50
2022/07/04 01:13:42;;;;;;;1.60;0.90;;;18.60;99.90;;;;;;5073558;28;20029;-50
2022/07/04 01:16:12;;;;;;;1.65;1.20;;;18.60;99.90;;;;;;5075330;28;20124;-49
2022/07/04 01:18:38;;;;;;;2.88;1.23;;;18.70;99.90;;;;;;5073521;28;20077;-49
2022/07/04 01:21:04;;;;;;;2.35;1.05;;;18.70;99.90;;;;;;5074712;28;20063;-49
2022/07/04 01:23:30;;;;;;;2.70;1.50;;;18.80;99.90;;;;;;5073412;28;20055;-52
2022/07/04 01:25:57;;;;;;;2.35;1.10;;;18.70;99.90;;;;;;5073748;28;20020;-51
2022/07/04 01:28:23;;;;;;;2.30;1.30;;;18.60;99.90;;;;;;5074526;28;20024;-51
2022/07/04 01:30:49;;;;;;;3.15;1.25;;;18.60;99.90;;;;;;5074547;28;20025;-49
2022/07/04 01:33:17;;;;;;;1.75;1.20;;;18.50;99.90;;;;;;5073689;28;20032;-50
2022/07/04 01:35:46;;;;;;;2.55;1.27;;;18.50;99.90;;;;;;5074495;28;20158;-49
2022/07/04 01:38:12;;;;;;;1.50;1.10;;;18.70;99.90;;;;;;5073295;28;20088;-53
2022/07/04 01:40:37;;;;;;;1.27;1.00;;;18.70;99.90;;;;;;5074503;28;20103;-52
2022/07/04 01:43:03;;;;;;;2.30;1.15;;;18.60;99.90;;;;;;5073062;28;20135;-48
2022/07/04 01:45:29;;;;;;;1.23;1.13;;;18.60;99.90;;;;;;5073770;28;20056;-49
2022/07/04 01:47:54;;;;;;;2.58;1.10;;;18.50;99.90;;;;;;5072949;28;20056;-52
2022/07/04 01:50:20;;;;;;;1.60;1.10;;;18.50;99.90;;;;;;5072821;28;20067;-54
2022/07/04 01:52:46;;;;;;;1.50;1.30;;;18.40;99.90;;;;;;5074124;28;20082;-49
2022/07/04 01:55:12;;;;;;;2.03;1.33;;;18.40;99.90;;;;;;5074087;28;20024;-49
2022/07/04 01:57:38;;;;;;;2.53;1.60;;;18.40;99.90;;;;;;5074375;28;20028;-49
2022/07/04 02:02:54;;;;;;;5.55;1.40;;;18.40;99.90;;;;;;5074486;28;20078;-52
2022/07/04 02:05:20;;;;;;;1.48;1.17;;;18.30;99.90;;;;;;5072710;28;20028;-54
2022/07/04 02:07:45;;;;;;;4.55;1.17;;;18.30;99.90;;;;;;5074225;28;20021;-50
2022/07/04 02:10:11;;;;;;;3.20;1.42;;;18.40;99.90;;;;;;5072624;28;20092;-50
2022/07/04 02:15:22;;;;;;;3.60;1.15;;;18.70;99.90;;;;;;5073959;28;20103;-49
2022/07/04 02:17:47;;;;;;;2.65;1.10;;;18.80;99.90;;;;;;5072335;28;20037;-52
2022/07/04 02:20:14;;;;;;;2.10;1.30;;;18.70;99.90;;;;;;5072584;28;20082;-52
2022/07/04 02:22:39;;;;;;;3.55;1.15;;;18.70;99.90;;;;;;5073721;28;20027;-48
2022/07/04 02:25:06;;;;;;;3.45;1.30;;;18.60;99.90;;;;;;5073539;28;20013;-51
2022/07/04 02:27:32;;;;;;;2.70;1.27;;;18.60;99.90;;;;;;5073373;28;20050;-48
2022/07/04 02:29:58;;;;;;;3.63;1.30;;;18.50;99.90;;;;;;5073709;28;20024;-51
2022/07/04 02:32:23;;;;;;;3.88;1.23;;;18.40;99.90;;;;;;5073340;28;20040;-49
2022/07/04 02:34:49;;;;;;;3.50;1.60;;;18.30;99.90;;;;;;5072086;28;20052;-53
2022/07/04 02:37:15;;;;;;;1.25;1.15;;;18.20;99.90;;;;;;5073193;28;20040;-48
2022/07/04 02:39:40;;;;;;;3.38;1.52;;;18.30;99.90;;;;;;5073548;28;20047;-51
2022/07/04 02:42:06;;;;;;;2.03;1.15;;;18.20;99.90;;;;;;5073210;28;20028;-51
2022/07/04 02:44:32;;;;;;;2.38;1.20;;;18.20;99.90;;;;;;5073503;28;20028;-54
2022/07/04 02:46:57;;;;;;;3.25;1.10;;;18.10;99.90;;;;;;5073115;28;20039;-51
2022/07/04 02:49:23;;;;;;;4.28;2.03;;;18.00;99.90;;;;;;5072297;28;20109;-50
2022/07/04 02:51:49;;;;;;;3.08;1.75;;;18.00;99.90;;;;;;5071776;28;20027;-53
2022/07/04 02:54:15;;;;;;;2.10;1.80;;;18.00;99.90;;;;;;5073022;28;20025;-55
2022/07/04 02:56:41;;;;;;;2.72;1.70;;;17.90;99.90;;;;;;5072918;28;20052;-49
2022/07/04 02:59:07;;;;;;;1.88;1.40;;;17.80;99.90;;;;;;5073073;28;20099;-53
2022/07/04 03:01:32;;;;;;;4.70;1.67;;;17.70;99.90;;;;;;5071502;28;20093;-53
2022/07/04 03:03:58;;;;;;;4.55;1.40;;;17.70;99.90;;;;;;5072874;28;20067;-49
2022/07/04 03:06:24;;;;;;;2.63;1.63;;;17.60;99.90;;;;;;5071555;28;20473;-49
2022/07/04 03:08:52;;;;;;;2.35;1.52;;;17.60;99.90;;;;;;5072287;28;20024;-51
2022/07/04 03:11:18;;;;;;;2.55;1.80;;;17.60;99.90;;;;;;5073088;28;20041;-50
2022/07/04 03:13:44;;;;;;;4.43;1.50;;;17.50;99.90;;;;;;5071775;28;20024;-51
2022/07/04 03:16:10;;;;;;;1.63;1.20;;;17.40;99.90;;;;;;5071325;28;20025;-50
2022/07/04 03:18:36;;;;;;;3.20;1.30;;;17.50;99.90;;;;;;5071748;28;20089;-49
2022/07/04 03:21:04;;;;;;;2.35;1.60;;;17.50;99.90;;;;;;5072043;28;20020;-50
2022/07/04 03:23:30;;;;;;;4.93;1.58;;;17.40;99.90;;;;;;5072685;28;20014;-53
2022/07/04 03:25:56;;;;;;;3.58;1.25;;;17.30;99.90;;;;;;5071438;28;20056;-54
2022/07/04 03:28:21;;;;;;;1.40;1.30;;;17.20;99.90;;;;;;5072963;28;20048;-53
2022/07/04 03:30:47;;;;;;;22.25;9.50;;;17.20;99.90;;;;;;5071051;28;20526;-53
2022/07/04 03:33:13;;;;;;;6.55;2.42;;;17.20;99.90;;;;;;5072543;28;20398;-52
2022/07/04 03:35:39;;;;;;;2.40;1.40;;;17.10;99.90;;;;;;5071269;28;20017;-55
2022/07/04 03:38:04;;;;;;;5.95;1.60;;;17.10;99.90;;;;;;5071128;28;20029;-51
2022/07/04 03:40:31;;;;;;;3.90;1.23;;;17.10;99.90;;;;;;5072606;28;20070;-53
2022/07/04 03:42:58;;;;;;;2.90;1.40;;;17.10;99.90;;;;;;5072521;28;20020;-51
2022/07/04 03:45:24;;;;;;;1.30;1.20;;;17.10;99.90;;;;;;5071072;28;20027;-48
2022/07/04 03:47:49;;;;;;;4.40;1.65;;;17.20;99.90;;;;;;5072455;28;20020;-52
2022/07/04 03:50:15;;;;;;;2.30;1.42;;;17.20;99.90;;;;;;5072247;28;20070;-50
2022/07/04 03:52:40;;;;;;;3.15;1.63;;;17.30;99.90;;;;;;5072671;28;20031;-50
2022/07/04 03:55:07;;;;;;;4.15;2.10;;;17.20;99.90;;;;;;5072488;28;20056;-53
2022/07/04 03:57:32;;;;;;;1.77;1.30;;;17.30;99.90;;;;;;5071394;28;20395;-52
2022/07/04 03:59:58;;;;;;;5.07;1.65;;;17.30;99.90;;;;;;5072281;28;20020;-52
2022/07/04 04:02:23;;;;;;;3.30;1.40;;;17.50;99.90;;;;;;5071141;28;20025;-54
2022/07/04 04:07:33;;;;;;;11.57;1.95;;;17.60;99.90;;;;;;5072661;28;20040;-53
2022/07/04 04:09:59;;;;;;;4.13;1.60;;;17.70;99.90;;;;;;5072293;28;20033;-53
2022/07/04 04:12:24;;;;;;;2.47;1.30;;;17.90;99.90;;;;;;5072510;28;20419;-52
2022/07/04 04:14:50;;;;;;;1.83;1.60;;;18.20;99.90;;;;;;5072271;28;20052;-52
2022/07/04 04:17:16;;;;;;;8.25;2.75;;;18.40;99.90;;;;;;5072146;28;20081;-49
2022/07/04 04:19:41;;;;;;;3.33;1.90;;;18.40;99.90;;;;;;5072257;28;20016;-55
2022/07/04 04:22:07;;;;;;;4.93;1.88;;;18.50;99.90;;;;;;5072113;28;20033;-55
2022/07/04 04:24:33;;;;;;;3.97;1.70;;;18.50;99.90;;;;;;5072213;28;20021;-55
2022/07/04 04:26:58;;;;;;;2.65;1.48;;;18.50;99.90;;;;;;5070914;28;20021;-52
2022/07/04 04:29:24;;;;;;;6.00;1.70;;;18.60;99.90;;;;;;5071168;28;20020;-53
2022/07/04 04:31:50;;;;;;;2.92;1.88;;;18.80;99.90;;;;;;5072349;28;20024;-53
2022/07/04 04:34:15;;;;;;;8.40;1.95;;;19.20;99.90;;;;;;5072927;28;20068;-53
2022/07/04 04:36:41;;;;;;;4.13;2.00;;;19.60;99.90;;;;;;5071244;28;20028;-55
2022/07/04 04:39:06;;;;;;;3.47;1.90;;;20.00;99.90;;;;;;5071276;28;20071;-50
2022/07/04 04:41:32;;;;;;;6.10;1.92;;;20.30;99.90;;;;;;5071533;28;20020;-54
2022/07/04 04:43:57;;;;;;;2.83;1.52;;;20.60;99.90;;;;;;5075346;28;20088;-50
2022/07/04 04:46:23;;;;;;;2.38;1.88;;;20.90;99.90;;;;;;5076586;28;20092;-51
2022/07/04 04:48:48;;;;;;;2.28;1.98;;;21.20;99.90;;;;;;5075992;28;20082;-50
2022/07/04 04:51:14;;;;;;;3.35;1.88;;;21.40;99.90;;;;;;5075909;28;20094;-52
2022/07/04 04:53:40;;;;;;;2.88;1.55;;;21.60;99.90;;;;;;5075941;28;20029;-53
2022/07/04 04:56:05;;;;;;;2.92;1.63;;;22.00;99.90;;;;;;5074727;28;20063;-55
2022/07/04 04:58:31;;;;;;;2.67;1.75;;;22.30;99.90;;;;;;5075257;28;20047;-54
2022/07/04 05:00:56;;;;;;;1.92;1.73;;;22.70;99.90;;;;;;5075942;28;20020;-51
2022/07/04 05:03:22;;;;;;;3.38;1.65;;;23.00;99.90;;;;;;5074390;28;20068;-52
2022/07/04 05:05:48;;;;;;;3.05;1.50;;;23.30;99.90;;;;;;5074431;28;20078;-52
2022/07/04 05:08:13;;;;;;;4.28;1.67;;;23.60;99.90;;;;;;5075728;28;20072;-54
2022/07/04 05:10:40;;;;;;;3.28;1.98;;;23.90;99.90;;;;;;5075804;28;20032;-50
2022/07/04 05:13:06;;;;;;;3.63;1.80;;;24.20;99.90;;;;;;5074410;28;20024;-49
2022/07/04 05:15:31;;;;;;;8.63;1.58;;;24.50;99.90;;;;;;5075715;28;20383;-53
2022/07/04 05:17:57;;;;;;;2.42;1.40;;;24.70;99.90;;;;;;5074959;28;20089;-50
2022/07/04 05:20:23;;;;;;;2.80;1.40;;;24.80;99.90;;;;;;5077101;28;20024;-51
2022/07/04 05:22:48;;;;;;;5.07;1.45;;;24.80;99.90;;;;;;5075876;28;20028;-52
2022/07/04 05:25:14;;;;;;;7.05;1.90;;;25.10;99.90;;;;;;5074134;28;20039;-53
2022/07/04 05:27:40;;;;;;;1.38;1.23;;;25.40;99.90;;;;;;5075272;28;20029;-52
2022/07/04 05:30:06;;;;;;;4.15;1.10;;;25.70;99.90;;;;;;5074813;28;20056;-52
2022/07/04 05:32:32;;;;;;;2.67;1.50;;;26.10;99.90;;;;;;5073962;28;20024;-49
2022/07/04 05:34:58;;;;;;;4.95;1.48;;;26.40;99.90;;;;;;5075195;28;20035;-51
2022/07/04 05:37:24;;;;;;;2.88;1.48;;;26.80;99.90;;;;;;5074061;28;20051;-53
2022/07/04 05:39:49;;;;;;;1.55;1.30;;;27.20;99.90;;;;;;5073810;28;20028;-54
2022/07/04 05:42:16;;;;;;;3.90;1.40;;;27.50;99.90;;;;;;5073635;28;20047;-56
2022/07/04 05:44:42;;;;;;;4.55;1.35;;;27.80;99.90;;;;;;5074851;28;20028;-53
2022/07/04 05:47:07;;;;;;;5.57;1.42;;;28.10;99.90;;;;;;5075177;28;20025;-49
2022/07/04 05:49:33;;;;;;;2.55;1.60;;;28.50;99.40;;;;;;5075121;28;20037;-51
2022/07/04 05:51:59;;;;;;;2.45;1.40;;;28.90;98.10;;;;;;5074825;28;20099;-51
2022/07/04 05:54:25;;;;;;;1.75;1.27;;;29.20;96.10;;;;;;5073779;28;20032;-49
2022/07/04 05:56:50;;;;;;;2.00;1.38;;;29.40;95.90;;;;;;5074587;28;20020;-49
2022/07/04 05:59:16;;;;;;;2.90;1.20;;;29.70;93.00;;;;;;5074616;28;20048;-51
2022/07/04 06:01:42;;;;;;;1.63;1.00;;;30.00;91.80;;;;;;5073620;28;20202;-50
2022/07/04 06:04:07;;;;;;;5.50;1.65;;;30.30;92.30;;;;;;5074940;28;20028;-51
2022/07/04 06:06:33;;;;;;;4.85;1.60;;;30.50;91.30;;;;;;5073333;28;20040;-53
2022/07/04 06:08:59;;;;;;;2.60;1.15;;;30.90;89.20;;;;;;5074778;28;20046;-53
2022/07/04 06:11:25;;;;;;;5.65;1.45;;;31.00;88.30;;;;;;5074790;28;20028;-50
2022/07/04 06:13:50;;;;;;;3.97;1.60;;;31.40;84.20;;;;;;5074360;28;20086;-49
2022/07/04 06:16:16;;;;;;;5.30;1.52;;;31.80;86.00;;;;;;5072973;28;20060;-53
2022/07/04 06:18:42;;;;;;;7.47;1.50;;;32.10;84.80;;;;;;5073037;28;20021;-51
2022/07/04 06:21:08;;;;;;;2.47;1.40;;;32.30;81.90;;;;;;5072992;28;20111;-50
2022/07/04 06:23:34;;;;;;;3.42;1.50;;;32.70;81.80;;;;;;5072866;28;20020;-49
2022/07/04 06:26:00;;;;;;;1.77;0.90;;;33.20;79.00;;;;;;5074187;28;20048;-52
2022/07/04 06:28:26;;;;;;;1.40;0.65;;;33.30;77.20;;;;;;5073938;28;20044;-49
2022/07/04 06:30:51;;;;;;;2.70;1.20;;;33.60;72.30;;;;;;5072810;28;20073;-51
2022/07/04 06:33:18;;;;;;;1.55;0.82;;;33.70;70.10;;;;;;5072772;28;20016;-51
2022/07/04 06:36:17;;;;;;;5.22;0.90;;;33.90;70.00;;;;;;5072761;28;20025;-52
2022/07/04 06:38:36;;;;;;;7.88;1.20;;;34.10;66.40;;;;;;5074739;28;20055;-51
2022/07/04 06:41:02;;;;;;;1.77;0.80;;;34.20;66.90;;;;;;5072541;28;20073;-51
2022/07/04 06:43:27;;;;;;;2.05;1.08;;;34.50;66.40;;;;;;5072823;28;20111;-53
2022/07/04 06:45:53;;;;;;;4.82;1.08;;;34.80;63.70;;;;;;5074012;28;20024;-50
2022/07/04 06:48:19;;;;;;;1.92;0.90;;;35.20;61.30;;;;;;5073803;28;20020;-54
2022/07/04 06:50:45;;;;;;;3.30;1.45;;;35.40;62.90;;;;;;5073705;28;20031;-55
2022/07/04 06:53:11;;;;;;;1.50;0.80;;;35.60;59.90;;;;;;5073729;28;20031;-56
2022/07/04 06:55:42;;;;;;;2.70;0.70;;;35.70;59.50;;;;;;5072766;28;20025;-54
2022/07/04 06:58:08;;;;;;;6.85;0.98;;;35.80;56.80;;;;;;5073526;28;20071;-51
2022/07/04 07:00:34;;;;;;;1.60;0.80;;;35.80;58.60;;;;;;5073824;28;20044;-52
2022/07/04 07:03:01;;;;;;;2.50;0.80;;;36.30;57.20;;;;;;5073632;28;20025;-50
2022/07/04 07:05:27;;;;;;;2.17;0.80;;;36.70;55.50;;;;;;5071726;28;20044;-51
2022/07/04 07:07:54;;;;;;;2.67;1.60;;;37.10;55.10;;;;;;5072717;28;20032;-53
2022/07/04 07:10:20;;;;;;;3.17;1.02;;;37.40;54.10;;;;;;5072990;28;20036;-51
2022/07/04 07:12:45;;;;;;;2.63;1.38;;;37.50;54.30;;;;;;5073719;28;20467;-54
2022/07/04 07:15:11;;;;;;;2.78;0.80;;;37.70;53.70;;;;;;5072205;28;20032;-53
2022/07/04 07:17:37;;;;;;;2.80;1.02;;;37.70;53.20;;;;;;5073215;28;20123;-55
2022/07/04 07:20:03;;;;;;;1.08;0.60;;;38.10;51.20;;;;;;5073694;28;20025;-53
2022/07/04 07:22:29;;;;;;;5.57;0.80;;;38.30;51.90;;;;;;5071999;28;20087;-52
2022/07/04 07:24:55;;;;;;;4.00;0.88;;;38.30;51.10;;;;;;5071959;28;20112;-51
2022/07/04 07:27:21;;;;;;;4.10;1.23;;;38.80;52.90;;;;;;5073601;28;20028;-50
2022/07/04 07:29:46;;;;;;;1.75;1.10;;;38.70;50.60;;;;;;5072364;28;20493;-55
2022/07/04 07:32:12;;;;;;;3.50;0.82;;;38.60;51.30;;;;;;5073169;28;20028;-50
2022/07/04 07:34:38;;;;;;;1.00;0.90;;;39.00;51.40;;;;;;5072293;28;20021;-51
2022/07/04 07:37:03;;;;;;;2.88;1.10;;;39.10;51.10;;;;;;5071858;28;20025;-50
2022/07/04 07:39:29;;;;;;;3.03;1.20;;;39.70;49.10;;;;;;5071992;28;20020;-52
2022/07/04 07:41:55;;;;;;;2.28;1.00;;;40.00;48.80;;;;;;5071854;28;20028;-51
2022/07/04 07:44:20;;;;;;;5.88;1.38;;;40.10;50.00;;;;;;5073221;28;20028;-52
2022/07/04 07:46:46;;;;;;;2.50;1.10;;;40.40;49.20;;;;;;5072156;28;20021;-52
2022/07/04 07:49:12;;;;;;;2.40;0.90;;;40.80;49.00;;;;;;5071798;28;20090;-52
2022/07/04 07:51:37;;;;;;;2.03;0.85;;;40.90;47.90;;;;;;5071649;28;20107;-51
2022/07/04 07:54:03;;;;;;;1.30;0.90;;;40.80;46.50;;;;;;5072136;28;20491;-52
2022/07/04 07:56:29;;;;;;;6.00;0.95;;;40.90;46.40;;;;;;5071930;28;20025;-52
2022/07/04 07:58:54;;;;;;;3.70;1.08;;;41.20;46.30;;;;;;5071674;28;20539;-54
2022/07/04 08:01:20;;;;;;;2.05;0.90;;;41.60;46.00;;;;;;5072847;28;20025;-55
2022/07/04 08:06:32;;;;;;;2.55;0.80;;;42.40;44.60;;;;;;5073570;28;20104;-54
2022/07/04 08:08:58;;;;;;;1.77;0.88;;;42.40;43.80;;;;;;5071641;28;20020;-50
2022/07/04 08:11:24;;;;;;;1.83;0.90;;;42.50;43.30;;;;;;5071580;28;20040;-53
2022/07/04 08:13:50;;;;;;;1.20;0.88;;;42.30;43.90;;;;;;5072155;28;20387;-50
2022/07/04 08:16:16;;;;;;;3.38;0.90;;;42.20;42.70;;;;;;5073009;28;20032;-50
2022/07/04 08:18:42;;;;;;;1.85;0.82;;;42.20;43.10;;;;;;5075690;28;20021;-57
2022/07/04 08:21:07;;;;;;;1.00;0.90;;;42.40;43.30;;;;;;5076528;28;20561;-53
2022/07/04 08:23:34;;;;;;;2.05;0.82;;;42.40;42.50;;;;;;5076153;28;20052;-56
2022/07/04 08:26:00;;;;;;;1.42;0.90;;;42.80;42.30;;;;;;5075221;28;20483;-57
2022/07/04 08:28:27;;;;;;;2.30;1.08;;;43.30;41.70;;;;;;5076416;28;20077;-57
2022/07/04 08:30:53;;;;;;;2.70;0.93;;;43.40;41.20;;;;;;5074935;28;20027;-52
2022/07/04 08:33:19;;;;;;;1.60;1.02;;;43.90;40.70;;;;;;5075324;28;20467;-51
2022/07/04 08:35:44;;;;;;;3.22;1.20;;;44.10;42.30;;;;;;5074998;28;20028;-51
2022/07/04 08:38:11;;;;;;;3.35;1.27;;;44.30;41.70;;;;;;5075501;28;20051;-51
2022/07/04 08:40:36;;;;;;;4.20;1.20;;;43.90;41.60;;;;;;5076496;28;20050;-50
2022/07/04 08:43:03;;;;;;;5.38;1.45;;;43.90;43.10;;;;;;5074909;28;20036;-49
2022/07/04 08:45:34;;;;;;;3.45;1.20;;;44.10;41.60;;;;;;5074822;28;20052;-50
2022/07/04 08:48:03;;;;;;;3.40;1.38;;;44.40;41.30;;;;;;5076661;28;20017;-48
2022/07/04 08:50:33;;;;;;;2.05;1.20;;;45.00;41.10;;;;;;5076253;28;20103;-51
2022/07/04 08:53:03;;;;;;;2.90;1.10;;;45.20;39.40;;;;;;5075977;28;20036;-53
2022/07/04 08:58:26;;;;;;;1.58;1.10;;;45.10;39.50;;;;;;5076175;28;20043;-50
2022/07/04 09:00:52;;;;;;;3.35;1.20;;;44.70;40.20;;;;;;5075777;28;20020;-52
2022/07/04 09:03:19;;;;;;;5.82;1.65;;;44.00;40.20;;;;;;5075813;28;20020;-53
2022/07/04 09:05:45;;;;;;;1.30;1.15;;;43.80;40.50;;;;;;5075310;28;20024;-52
2022/07/04 09:08:11;;;;;;;2.40;1.10;;;43.70;40.50;;;;;;5074805;28;20025;-50
2022/07/04 09:10:37;;;;;;;4.00;1.40;;;43.90;40.90;;;;;;5074218;28;20064;-50
2022/07/04 09:13:04;;;;;;;2.25;1.17;;;43.90;41.00;;;;;;5075644;28;20171;-51
2022/07/04 09:15:31;;;;;;;2.75;1.00;;;44.50;40.50;;;;;;5075148;28;20077;-55
2022/07/04 09:17:57;;;;;;;2.78;1.20;;;44.70;40.30;;;;;;5075377;28;20017;-52
2022/07/04 09:20:24;;;;;;;4.13;1.25;;;44.90;39.50;;;;;;5075667;28;20021;-50
2022/07/04 09:22:52;;;;;;;2.63;1.45;;;44.80;39.50;;;;;;5074465;28;20028;-51
2022/07/04 09:25:18;;;;;;;1.42;0.80;;;43.30;38.30;;;;;;5074452;28;20023;-50
2022/07/04 09:27:49;;;;;;;1.38;0.80;;;42.70;41.10;;;;;;5074703;28;20024;-50
2022/07/04 09:30:26;;;;;;;3.80;1.10;;;43.30;39.50;;;;;;5075250;28;20035;-54
2022/07/04 09:33:00;;;;;;;2.63;1.30;;;43.50;39.00;;;;;;5074015;28;20038;-53
2022/07/04 09:35:28;;;;;;;1.20;1.08;;;43.80;40.20;;;;;;5074770;28;20382;-50
2022/07/04 09:37:59;;;;;;;2.45;0.90;;;44.70;39.90;;;;;;5074169;28;20039;-54
2022/07/04 09:40:26;;;;;;;1.67;1.00;;;45.10;38.80;;;;;;5073704;28;20063;-55
2022/07/04 09:42:53;;;;;;;2.88;1.20;;;45.80;38.90;;;;;;5075013;28;20048;-52
2022/07/04 09:45:21;;;;;;;1.95;1.00;;;44.60;38.30;;;;;;5073743;28;20024;-57
2022/07/04 09:47:47;;;;;;;2.17;1.60;;;44.90;39.10;;;;;;5073800;28;20037;-57
2022/07/04 09:50:16;;;;;;;2.08;1.20;;;45.10;38.30;;;;;;5075130;28;20063;-56
2022/07/04 09:52:54;;;;;;;2.30;1.02;;;45.10;37.70;;;;;;5073586;28;20024;-51
2022/07/04 09:55:24;;;;;;;2.35;1.30;;;45.30;38.70;;;;;;5074845;28;20028;-51
2022/07/04 09:57:50;;;;;;;4.88;1.40;;;44.90;38.20;;;;;;5073343;28;20514;-52
2022/07/04 10:00:35;;;;;;;4.20;1.17;;;44.50;37.70;;;;;;5072192;28;20032;-53
2022/07/04 10:03:27;;;;;;;2.58;1.00;;;43.70;39.00;;;;;;5072177;28;20088;-49
2022/07/04 10:06:08;;;;;;;3.40;1.75;;;44.20;39.20;;;;;;5073928;28;20032;-53
2022/07/04 10:08:34;;;;;;;3.30;1.10;;;44.20;37.30;;;;;;5071882;28;20024;-51
2022/07/04 10:11:01;;;;;;;2.47;1.00;;;43.80;37.80;;;;;;5072932;28;20032;-50
2022/07/04 10:13:27;;;;;;;1.58;1.20;;;43.80;37.20;;;;;;5073168;28;20025;-51
2022/07/04 10:15:53;;;;;;;1.60;1.00;;;43.90;37.80;;;;;;5073412;28;20111;-49
2022/07/04 10:18:20;;;;;;;0.82;0.77;;;43.80;36.90;;;;;;5073397;28;20048;-49
2022/07/04 10:20:48;;;;;;;1.75;1.08;;;43.80;35.30;;;;;;5073258;28;20107;-51
2022/07/04 10:23:15;;;;;;;0.80;0.80;;;43.30;38.10;;;;;;5074494;28;20017;-50
2022/07/04 10:25:41;;;;;;;0.88;0.60;;;42.80;35.20;;;;;;5074412;28;20095;-53
2022/07/04 10:28:08;;;;;;;1.88;0.80;;;41.60;37.20;;;;;;5072932;28;20047;-52
2022/07/04 10:30:35;;;;;;;0.80;0.60;;;41.80;35.70;;;;;;5072747;28;20024;-52
2022/07/04 10:33:03;;;;;;;4.45;0.60;;;41.60;36.30;;;;;;5074122;28;20025;-49
2022/07/04 10:36:01;;;;;;;0.70;0.60;;;41.00;37.80;;;;;;5074245;28;20514;-50
2022/07/04 10:38:45;;;;;;;0.75;0.60;;;40.40;38.50;;;;;;5072696;28;20028;-55
2022/07/04 10:41:11;;;;;;;1.63;0.40;;;39.40;39.10;;;;;;5071839;28;20032;-55
2022/07/04 10:43:50;;;;;;;0.80;0.60;;;38.50;38.50;;;;;;5072625;28;20021;-52
2022/07/04 10:46:15;;;;;;;1.70;0.52;;;37.30;41.00;;;;;;5073842;28;20020;-55
2022/07/04 10:48:59;;;;;;;1.02;0.50;;;36.70;42.20;;;;;;5073034;28;20027;-55
2022/07/04 10:51:48;;;;;;;4.30;0.60;;;36.20;41.90;;;;;;5073839;28;20048;-51
2022/07/04 10:54:34;;;;;;;4.70;0.50;;;35.70;41.00;;;;;;5072566;28;20078;-50
2022/07/04 10:57:15;;;;;;;0.85;0.30;;;35.10;40.80;;;;;;5073180;28;20032;-51
2022/07/04 11:00:01;;;;;;;4.55;0.70;;;34.80;44.50;;;;;;5073604;28;20360;-51
2022/07/04 11:02:32;;;;;;;0.40;0.40;;;34.10;42.20;;;;;;5073865;28;20047;-51
2022/07/04 11:05:06;;;;;;;1.67;0.30;;;33.70;43.60;;;;;;5072429;28;20025;-50
2022/07/04 11:07:35;;;;;;;0.85;0.40;;;33.30;44.40;;;;;;5073608;28;20024;-49
2022/07/04 11:10:13;;;;;;;0.40;0.30;;;32.60;44.30;;;;;;5073547;28;20107;-49
2022/07/04 11:13:13;;;;;;;2.65;0.40;;;30.90;45.70;;;;;;5072118;28;20035;-50
2022/07/04 11:15:40;;;;;;;0.65;0.50;;;31.10;45.80;;;;;;5073361;28;20029;-50
2022/07/04 11:18:13;;;;;;;2.53;0.68;;;31.10;46.60;;;;;;5073137;28;20024;-48
2022/07/04 11:20:45;;;;;;;1.65;0.60;;;31.10;47.50;;;;;;5072075;28;20040;-48
2022/07/04 11:23:16;;;;;;;1.60;0.38;;;30.90;47.20;;;;;;5073349;28;20044;-49
2022/07/04 11:25:42;;;;;;;;;;;31.00;48.20;;;;;;5073783;28;20021;-50
2022/07/04 11:28:22;;;;;;;1.33;0.30;;;30.80;47.80;;;;;;5073234;28;20363;-52
2022/07/04 11:31:00;;;;;;;1.05;0.50;;;30.70;47.50;;;;;;5072318;28;20120;-50
2022/07/04 11:33:30;;;;;;;4.68;0.60;;;30.60;48.70;;;;;;5071999;28;20021;-50
2022/07/04 11:36:04;;;;;;;2.03;0.47;;;30.50;49.30;;;;;;5073243;28;20020;-50
2022/07/04 11:38:47;;;;;;;2.75;0.68;;;30.10;46.00;;;;;;5073470;28;20039;-51
2022/07/04 11:46:42;;;;;;;1.67;0.70;;;29.70;49.70;;;;;;5073725;28;20039;-49
2022/07/04 11:49:10;;;;;;;1.65;0.40;;;29.20;48.40;;;;;;5071870;28;20028;-48
2022/07/04 11:51:40;;;;;;;0.82;0.40;;;28.80;49.80;;;;;;5074836;28;20070;-52
2022/07/04 11:54:06;;;;;;;2.17;0.50;;;29.00;50.70;;;;;;5076506;28;20032;-54
2022/07/04 11:56:32;;;;;;;0.30;0.30;;;29.00;49.00;;;;;;5076664;28;20078;-49
2022/07/04 11:59:12;;;;;;;0.35;0.35;;;29.10;49.80;;;;;;5077344;28;20060;-50
2022/07/04 12:01:38;;;;;;;1.77;0.30;;;29.20;49.40;;;;;;5077057;28;20047;-50
2022/07/04 12:04:20;;;;;;;0.50;0.25;;;29.10;50.70;;;;;;5075659;28;20036;-52
2022/07/04 12:06:47;;;;;;;0.65;0.60;;;29.10;49.40;;;;;;5077141;28;20104;-55
2022/07/04 12:09:17;;;;;;;1.02;0.55;;;29.20;48.80;;;;;;5075487;28;20020;-51
2022/07/04 12:11:58;;;;;;;0.32;0.30;;;29.30;48.70;;;;;;5076655;28;20120;-53
2022/07/04 12:14:26;;;;;;;0.35;0.30;;;28.90;48.50;;;;;;5076145;28;20032;-51
2022/07/04 12:17:13;;;;;;;1.30;0.43;;;28.50;49.90;;;;;;5075617;28;20057;-54
2022/07/04 12:19:58;;;;;;;4.50;0.60;;;28.60;51.00;;;;;;5075419;28;20021;-51
2022/07/04 12:22:37;;;;;;;0.47;0.40;;;28.60;51.10;;;;;;5075264;28;20025;-52
2022/07/04 12:25:05;;;;;;;2.97;0.88;;;28.70;50.20;;;;;;5076521;28;20086;-51
2022/07/04 12:27:31;;;;;;;0.77;0.60;;;28.60;50.00;;;;;;5075479;28;20024;-52
2022/07/04 12:29:58;;;;;;;2.90;0.47;;;28.70;50.10;;;;;;5076340;28;20032;-50
2022/07/04 12:32:48;;;;;;;0.77;0.70;;;28.40;50.70;;;;;;5076334;28;20024;-49
2022/07/04 12:35:33;;;;;;;3.05;0.47;;;27.80;50.90;;;;;;5075201;28;20119;-51
2022/07/04 12:38:03;;;;;;;0.52;0.25;;;27.90;51.90;;;;;;5075552;28;20103;-50
2022/07/04 12:40:28;;;;;;;1.40;0.40;;;28.00;52.40;;;;;;5076178;28;20017;-54
2022/07/04 12:42:58;;;;;;;3.97;0.52;;;28.20;52.70;;;;;;5076209;28;20032;-53
2022/07/04 12:45:24;;;;;;;2.05;0.40;;;28.20;52.30;;;;;;5076128;28;20480;-52
2022/07/04 12:47:50;;;;;;;3.92;0.60;;;28.40;51.30;;;;;;5075673;28;20021;-52
2022/07/04 12:50:26;;;;;;;5.05;0.80;;;28.40;50.70;;;;;;5074950;28;20031;-52
2022/07/04 12:52:52;;;;;;;2.22;0.30;;;28.40;51.00;;;;;;5076067;28;20017;-51
2022/07/04 12:55:17;;;;;;;2.03;0.40;;;28.50;51.10;;;;;;5074827;28;20082;-49
2022/07/04 12:57:43;;;;;;;0.35;0.35;;;28.40;50.20;;;;;;5075824;28;20032;-51
2022/07/04 13:00:09;;;;;;;0.77;0.30;;;28.40;50.70;;;;;;5075156;28;20059;-51
2022/07/04 13:02:35;;;;;;;0.57;0.40;;;28.40;51.60;;;;;;5074959;28;20029;-49
2022/07/04 13:05:00;;;;;;;1.08;0.70;;;28.40;51.30;;;;;;5076101;28;20031;-49
2022/07/04 13:07:26;;;;;;;0.60;0.43;;;28.40;50.80;;;;;;5075924;28;20422;-54
2022/07/04 13:09:51;;;;;;;0.70;0.45;;;28.40;51.60;;;;;;5074845;28;20053;-53